ADDS TAF Data INFO
IDs: Format: Raw Decoded Include METARs

Data at: 2314 UTC 15 Jul 2018

KRSW 151739Z 1518/1618 25006KT P6SM SCT040 BKN100
  FM152000 27008KT P6SM VCTS SCT040CB BKN250
  FM160100 VRB03KT P6SM SCT040 SCT130 BKN250
  FM161700 27007KT P6SM VCTS SCT040CB BKN100